sensor_id;sensor_type;location;lat;lon;timestamp;pressure;altitude;pressure_sealevel;temperature;humidity
71666;BME280;59503;53.486;10.196;2024-02-21T00:00:54;101898.66;;;8.08;100.00
71666;BME280;59503;53.486;10.196;2024-02-21T00:03:20;101909.66;;;8.11;100.00
71666;BME280;59503;53.486;10.196;2024-02-21T00:05:46;101900.25;;;8.09;100.00
71666;BME280;59503;53.486;10.196;2024-02-21T00:08:11;101905.53;;;8.22;100.00
71666;BME280;59503;53.486;10.196;2024-02-21T00:10:37;101901.06;;;8.18;100.00
71666;BME280;59503;53.486;10.196;2024-02-21T00:13:03;101903.94;;;8.21;100.00
71666;BME280;59503;53.486;10.196;2024-02-21T00:15:28;101896.56;;;8.13;100.00
71666;BME280;59503;53.486;10.196;2024-02-21T00:17:54;101899.00;;;8.15;100.00
71666;BME280;59503;53.486;10.196;2024-02-21T00:20:19;101895.00;;;8.12;100.00
71666;BME280;59503;53.486;10.196;2024-02-21T00:22:45;101896.41;;;8.18;100.00
71666;BME280;59503;53.486;10.196;2024-02-21T00:25:11;101894.19;;;8.12;100.00
71666;BME280;59503;53.486;10.196;2024-02-21T00:27:37;101898.03;;;8.11;100.00
71666;BME280;59503;53.486;10.196;2024-02-21T00:30:04;101889.25;;;8.05;100.00
71666;BME280;59503;53.486;10.196;2024-02-21T00:32:30;101879.84;;;8.03;100.00
71666;BME280;59503;53.486;10.196;2024-02-21T00:34:55;101878.41;;;8.05;100.00
71666;BME280;59503;53.486;10.196;2024-02-21T00:37:21;101876.84;;;8.04;100.00
71666;BME280;59503;53.486;10.196;2024-02-21T00:39:46;101874.44;;;8.03;100.00
71666;BME280;59503;53.486;10.196;2024-02-21T00:42:12;101861.69;;;8.03;100.00
71666;BME280;59503;53.486;10.196;2024-02-21T00:44:38;101862.97;;;7.97;100.00
71666;BME280;59503;53.486;10.196;2024-02-21T00:47:03;101863.94;;;8.01;100.00
71666;BME280;59503;53.486;10.196;2024-02-21T00:49:29;101856.91;;;8.00;100.00
71666;BME280;59503;53.486;10.196;2024-02-21T00:51:55;101857.72;;;8.01;100.00
71666;BME280;59503;53.486;10.196;2024-02-21T00:54:20;101864.72;;;8.02;100.00
71666;BME280;59503;53.486;10.196;2024-02-21T00:56:47;101845.44;;;8.03;100.00
71666;BME280;59503;53.486;10.196;2024-02-21T00:59:12;101843.69;;;7.99;100.00
71666;BME280;59503;53.486;10.196;2024-02-21T01:01:38;101846.09;;;8.09;100.00
71666;BME280;59503;53.486;10.196;2024-02-21T01:04:03;101852.47;;;8.04;100.00
71666;BME280;59503;53.486;10.196;2024-02-21T01:06:29;101849.75;;;8.04;100.00
71666;BME280;59503;53.486;10.196;2024-02-21T01:08:54;101835.72;;;8.02;100.00
71666;BME280;59503;53.486;10.196;2024-02-21T01:11:20;101830.16;;;8.07;100.00
71666;BME280;59503;53.486;10.196;2024-02-21T01:13:45;101834.44;;;8.08;100.00
71666;BME280;59503;53.486;10.196;2024-02-21T01:16:11;101832.22;;;8.10;100.00
71666;BME280;59503;53.486;10.196;2024-02-21T01:18:37;101824.91;;;8.11;100.00
71666;BME280;59503;53.486;10.196;2024-02-21T01:21:03;101820.91;;;8.08;100.00
71666;BME280;59503;53.486;10.196;2024-02-21T01:23:35;101826.47;;;8.12;100.00
71666;BME280;59503;53.486;10.196;2024-02-21T01:26:00;101806.59;;;8.16;100.00
71666;BME280;59503;53.486;10.196;2024-02-21T01:28:26;101815.50;;;8.17;100.00
71666;BME280;59503;53.486;10.196;2024-02-21T01:30:51;101795.44;;;8.09;100.00
71666;BME280;59503;53.486;10.196;2024-02-21T01:33:17;101802.91;;;8.12;100.00
71666;BME280;59503;53.486;10.196;2024-02-21T01:35:42;101805.94;;;8.11;100.00
71666;BME280;59503;53.486;10.196;2024-02-21T01:38:08;101801.78;;;8.13;100.00
71666;BME280;59503;53.486;10.196;2024-02-21T01:40:34;101792.25;;;8.07;100.00
71666;BME280;59503;53.486;10.196;2024-02-21T01:42:59;101799.56;;;8.15;100.00
71666;BME280;59503;53.486;10.196;2024-02-21T01:45:25;101795.28;;;8.14;100.00
71666;BME280;59503;53.486;10.196;2024-02-21T01:47:50;101788.72;;;8.15;100.00
71666;BME280;59503;53.486;10.196;2024-02-21T01:50:16;101785.25;;;8.15;100.00
71666;BME280;59503;53.486;10.196;2024-02-21T01:52:43;101779.03;;;8.14;100.00
71666;BME280;59503;53.486;10.196;2024-02-21T01:55:13;101768.34;;;8.09;100.00
71666;BME280;59503;53.486;10.196;2024-02-21T01:57:40;101759.91;;;8.11;100.00
71666;BME280;59503;53.486;10.196;2024-02-21T02:00:07;101763.59;;;8.06;100.00
71666;BME280;59503;53.486;10.196;2024-02-21T02:02:32;101760.06;;;8.06;100.00
71666;BME280;59503;53.486;10.196;2024-02-21T02:04:59;101755.47;;;8.06;100.00
71666;BME280;59503;53.486;10.196;2024-02-21T02:07:25;101761.81;;;8.10;100.00
71666;BME280;59503;53.486;10.196;2024-02-21T02:09:51;101754.66;;;8.06;100.00
71666;BME280;59503;53.486;10.196;2024-02-21T02:12:17;101740.66;;;8.04;100.00
71666;BME280;59503;53.486;10.196;2024-02-21T02:14:42;101729.97;;;7.99;100.00
71666;BME280;59503;53.486;10.196;2024-02-21T02:17:08;101734.13;;;7.96;100.00
71666;BME280;59503;53.486;10.196;2024-02-21T02:19:34;101717.41;;;7.94;100.00
71666;BME280;59503;53.486;10.196;2024-02-21T02:22:15;101706.91;;;7.93;100.00
71666;BME280;59503;53.486;10.196;2024-02-21T02:24:45;101704.03;;;7.89;100.00
71666;BME280;59503;53.486;10.196;2024-02-21T02:27:10;101705.13;;;7.88;100.00
71666;BME280;59503;53.486;10.196;2024-02-21T02:29:35;101694.47;;;7.83;100.00
71666;BME280;59503;53.486;10.196;2024-02-21T02:32:01;101680.31;;;7.86;100.00
71666;BME280;59503;53.486;10.196;2024-02-21T02:34:27;101679.34;;;7.82;100.00
71666;BME280;59503;53.486;10.196;2024-02-21T02:36:52;101660.25;;;7.87;100.00
71666;BME280;59503;53.486;10.196;2024-02-21T02:39:19;101653.88;;;7.83;100.00
71666;BME280;59503;53.486;10.196;2024-02-21T02:41:46;101651.00;;;7.88;100.00
71666;BME280;59503;53.486;10.196;2024-02-21T02:44:11;101650.53;;;7.86;100.00
71666;BME280;59503;53.486;10.196;2024-02-21T02:46:40;101636.53;;;7.84;100.00
71666;BME280;59503;53.486;10.196;2024-02-21T02:49:05;101626.63;;;7.88;100.00
71666;BME280;59503;53.486;10.196;2024-02-21T02:51:31;101627.13;;;7.90;100.00
71666;BME280;59503;53.486;10.196;2024-02-21T02:53:56;101623.75;;;7.93;100.00
71666;BME280;59503;53.486;10.196;2024-02-21T02:56:22;101613.25;;;7.92;100.00
71666;BME280;59503;53.486;10.196;2024-02-21T02:58:47;101601.00;;;7.94;100.00
71666;BME280;59503;53.486;10.196;2024-02-21T03:01:13;101589.19;;;7.99;100.00
71666;BME280;59503;53.486;10.196;2024-02-21T03:03:39;101598.59;;;8.01;100.00
71666;BME280;59503;53.486;10.196;2024-02-21T03:06:04;101603.22;;;8.01;100.00
71666;BME280;59503;53.486;10.196;2024-02-21T03:08:30;101609.09;;;8.03;100.00
71666;BME280;59503;53.486;10.196;2024-02-21T03:10:55;101608.44;;;8.06;100.00
71666;BME280;59503;53.486;10.196;2024-02-21T03:13:21;101614.66;;;8.06;100.00
71666;BME280;59503;53.486;10.196;2024-02-21T03:15:46;101615.13;;;8.08;100.00
71666;BME280;59503;53.486;10.196;2024-02-21T03:18:13;101611.78;;;8.11;100.00
71666;BME280;59503;53.486;10.196;2024-02-21T03:20:38;101618.78;;;8.12;100.00
71666;BME280;59503;53.486;10.196;2024-02-21T03:23:03;101649.97;;;8.18;100.00
71666;BME280;59503;53.486;10.196;2024-02-21T03:25:29;101652.69;;;8.18;100.00
71666;BME280;59503;53.486;10.196;2024-02-21T03:27:54;101642.97;;;8.17;100.00
71666;BME280;59503;53.486;10.196;2024-02-21T03:30:20;101645.69;;;8.17;100.00
71666;BME280;59503;53.486;10.196;2024-02-21T03:32:46;101636.44;;;8.18;100.00
71666;BME280;59503;53.486;10.196;2024-02-21T03:35:11;101641.22;;;8.21;100.00
71666;BME280;59503;53.486;10.196;2024-02-21T03:37:36;101653.97;;;8.21;100.00
71666;BME280;59503;53.486;10.196;2024-02-21T03:40:02;101651.56;;;8.19;100.00
71666;BME280;59503;53.486;10.196;2024-02-21T03:42:28;101648.53;;;8.21;100.00
71666;BME280;59503;53.486;10.196;2024-02-21T03:44:55;101657.94;;;8.23;100.00
71666;BME280;59503;53.486;10.196;2024-02-21T03:47:21;101655.72;;;8.25;100.00
71666;BME280;59503;53.486;10.196;2024-02-21T03:49:46;101646.94;;;8.28;100.00
71666;BME280;59503;53.486;10.196;2024-02-21T03:52:11;101653.16;;;8.29;100.00
71666;BME280;59503;53.486;10.196;2024-02-21T03:54:37;101650.44;;;8.29;100.00
71666;BME280;59503;53.486;10.196;2024-02-21T03:57:04;101651.41;;;8.33;100.00
71666;BME280;59503;53.486;10.196;2024-02-21T03:59:30;101651.56;;;8.36;100.00
71666;BME280;59503;53.486;10.196;2024-02-21T04:01:55;101646.47;;;8.35;100.00
71666;BME280;59503;53.486;10.196;2024-02-21T04:04:21;101635.00;;;8.29;100.00
71666;BME280;59503;53.486;10.196;2024-02-21T04:06:50;101639.13;;;8.35;100.00
71666;BME280;59503;53.486;10.196;2024-02-21T04:09:15;101643.75;;;8.35;100.00
71666;BME280;59503;53.486;10.196;2024-02-21T04:11:41;101634.00;;;8.42;100.00
71666;BME280;59503;53.486;10.196;2024-02-21T04:14:07;101642.25;;;8.46;100.00
71666;BME280;59503;53.486;10.196;2024-02-21T04:16:34;101631.75;;;8.44;100.00
71666;BME280;59503;53.486;10.196;2024-02-21T04:18:59;101629.56;;;8.38;100.00
71666;BME280;59503;53.486;10.196;2024-02-21T04:21:25;101638.19;;;8.31;100.00
71666;BME280;59503;53.486;10.196;2024-02-21T04:23:50;101625.75;;;8.30;100.00
71666;BME280;59503;53.486;10.196;2024-02-21T04:26:16;101626.72;;;8.17;100.00
71666;BME280;59503;53.486;10.196;2024-02-21T04:28:42;101614.50;;;8.11;100.00
71666;BME280;59503;53.486;10.196;2024-02-21T04:31:07;101619.91;;;8.11;100.00
71666;BME280;59503;53.486;10.196;2024-02-21T04:33:32;101611.63;;;8.08;100.00
71666;BME280;59503;53.486;10.196;2024-02-21T04:35:58;101610.50;;;8.09;100.00
71666;BME280;59503;53.486;10.196;2024-02-21T04:38:25;101599.66;;;8.09;100.00
71666;BME280;59503;53.486;10.196;2024-02-21T04:40:50;101604.75;;;8.10;100.00
71666;BME280;59503;53.486;10.196;2024-02-21T04:43:16;101603.66;;;8.11;100.00
71666;BME280;59503;53.486;10.196;2024-02-21T04:45:42;101599.19;;;8.07;100.00
71666;BME280;59503;53.486;10.196;2024-02-21T04:48:07;101602.53;;;8.12;100.00
71666;BME280;59503;53.486;10.196;2024-02-21T04:50:33;101603.47;;;8.16;100.00
71666;BME280;59503;53.486;10.196;2024-02-21T04:52:58;101609.38;;;8.10;100.00
71666;BME280;59503;53.486;10.196;2024-02-21T04:55:24;101603.66;;;8.11;100.00
71666;BME280;59503;53.486;10.196;2024-02-21T04:57:49;101606.63;;;8.18;100.00
71666;BME280;59503;53.486;10.196;2024-02-21T05:00:15;101597.59;;;8.14;100.00
71666;BME280;59503;53.486;10.196;2024-02-21T05:02:40;101597.94;;;8.04;100.00
71666;BME280;59503;53.486;10.196;2024-02-21T05:05:06;101596.66;;;8.02;100.00
71666;BME280;59503;53.486;10.196;2024-02-21T05:07:32;101596.16;;;8.08;100.00
71666;BME280;59503;53.486;10.196;2024-02-21T05:09:57;101596.81;;;8.05;100.00
71666;BME280;59503;53.486;10.196;2024-02-21T05:12:23;101593.63;;;8.03;100.00
71666;BME280;59503;53.486;10.196;2024-02-21T05:14:48;101597.94;;;8.04;100.00
71666;BME280;59503;53.486;10.196;2024-02-21T05:17:15;101589.53;;;7.97;100.00
71666;BME280;59503;53.486;10.196;2024-02-21T05:19:40;101588.41;;;7.98;100.00
71666;BME280;59503;53.486;10.196;2024-02-21T05:22:06;101589.38;;;7.94;100.00
71666;BME280;59503;53.486;10.196;2024-02-21T05:24:31;101585.59;;;7.86;100.00
71666;BME280;59503;53.486;10.196;2024-02-21T05:26:57;101585.25;;;7.88;100.00
71666;BME280;59503;53.486;10.196;2024-02-21T05:29:23;101589.38;;;7.85;100.00
71666;BME280;59503;53.486;10.196;2024-02-21T05:34:20;101580.47;;;7.85;100.00
71666;BME280;59503;53.486;10.196;2024-02-21T05:36:46;101594.31;;;7.83;100.00
71666;BME280;59503;53.486;10.196;2024-02-21T05:39:13;101588.75;;;7.80;100.00
71666;BME280;59503;53.486;10.196;2024-02-21T05:41:38;101578.09;;;7.83;100.00
71666;BME280;59503;53.486;10.196;2024-02-21T05:44:04;101576.03;;;7.80;100.00
71666;BME280;59503;53.486;10.196;2024-02-21T05:46:29;101586.53;;;7.82;100.00
71666;BME280;59503;53.486;10.196;2024-02-21T05:48:55;101572.06;;;7.78;100.00
71666;BME280;59503;53.486;10.196;2024-02-21T05:51:20;101572.69;;;7.83;100.00
71666;BME280;59503;53.486;10.196;2024-02-21T05:53:45;101574.13;;;7.81;100.00
71666;BME280;59503;53.486;10.196;2024-02-21T05:56:12;101580.78;;;7.83;100.00
71666;BME280;59503;53.486;10.196;2024-02-21T05:58:38;101580.78;;;7.83;100.00
71666;BME280;59503;53.486;10.196;2024-02-21T06:01:04;101579.38;;;7.77;100.00
71666;BME280;59503;53.486;10.196;2024-02-21T06:03:30;101577.47;;;7.78;100.00
71666;BME280;59503;53.486;10.196;2024-02-21T06:05:56;101573.31;;;7.80;100.00
71666;BME280;59503;53.486;10.196;2024-02-21T06:08:21;101576.19;;;7.84;100.00
71666;BME280;59503;53.486;10.196;2024-02-21T06:10:47;101577.31;;;7.83;100.00
71666;BME280;59503;53.486;10.196;2024-02-21T06:13:14;101572.81;;;7.87;100.00
71666;BME280;59503;53.486;10.196;2024-02-21T06:15:39;101579.38;;;7.86;100.00
71666;BME280;59503;53.486;10.196;2024-02-21T06:18:05;101584.94;;;7.81;100.00
71666;BME280;59503;53.486;10.196;2024-02-21T06:20:30;101581.28;;;7.85;100.00
71666;BME280;59503;53.486;10.196;2024-02-21T06:22:57;101598.31;;;7.86;100.00
71666;BME280;59503;53.486;10.196;2024-02-21T06:25:22;101589.25;;;7.82;100.00
71666;BME280;59503;53.486;10.196;2024-02-21T06:27:48;101590.53;;;7.84;100.00
71666;BME280;59503;53.486;10.196;2024-02-21T06:30:14;101589.22;;;7.90;100.00
71666;BME280;59503;53.486;10.196;2024-02-21T06:32:39;101592.09;;;7.85;100.00
71666;BME280;59503;53.486;10.196;2024-02-21T06:35:05;101584.59;;;7.91;100.00
71666;BME280;59503;53.486;10.196;2024-02-21T06:37:31;101581.41;;;7.89;100.00
71666;BME280;59503;53.486;10.196;2024-02-21T06:39:57;101579.53;;;7.89;100.00
71666;BME280;59503;53.486;10.196;2024-02-21T06:42:24;101583.31;;;7.88;100.00
71666;BME280;59503;53.486;10.196;2024-02-21T06:44:50;101585.41;;;7.91;100.00
71666;BME280;59503;53.486;10.196;2024-02-21T06:47:15;101588.56;;;7.93;100.00
71666;BME280;59503;53.486;10.196;2024-02-21T06:49:41;101591.59;;;7.92;100.00
71666;BME280;59503;53.486;10.196;2024-02-21T06:52:07;101589.03;;;7.95;100.00
71666;BME280;59503;53.486;10.196;2024-02-21T06:54:32;101586.34;;;7.95;100.00
71666;BME280;59503;53.486;10.196;2024-02-21T06:56:58;101596.34;;;7.95;100.00
71666;BME280;59503;53.486;10.196;2024-02-21T06:59:24;101585.84;;;8.02;100.00
71666;BME280;59503;53.486;10.196;2024-02-21T07:01:51;101576.13;;;8.01;100.00
71666;BME280;59503;53.486;10.196;2024-02-21T07:04:17;101593.19;;;8.01;100.00
71666;BME280;59503;53.486;10.196;2024-02-21T07:06:42;101587.44;;;8.03;100.00
71666;BME280;59503;53.486;10.196;2024-02-21T07:09:07;101588.22;;;8.03;100.00
71666;BME280;59503;53.486;10.196;2024-02-21T07:11:33;101583.94;;;8.02;100.00
71666;BME280;59503;53.486;10.196;2024-02-21T07:13:58;101583.91;;;8.11;100.00
71666;BME280;59503;53.486;10.196;2024-02-21T07:16:24;101599.03;;;8.12;100.00
71666;BME280;59503;53.486;10.196;2024-02-21T07:18:50;101594.59;;;8.07;100.00
71666;BME280;59503;53.486;10.196;2024-02-21T07:21:15;101591.88;;;8.07;100.00
71666;BME280;59503;53.486;10.196;2024-02-21T07:23:41;101590.91;;;8.12;100.00
71666;BME280;59503;53.486;10.196;2024-02-21T07:26:09;101595.84;;;8.10;100.00
71666;BME280;59503;53.486;10.196;2024-02-21T07:28:35;101598.50;;;8.18;100.00
71666;BME280;59503;53.486;10.196;2024-02-21T07:31:01;101598.69;;;8.13;100.00
71666;BME280;59503;53.486;10.196;2024-02-21T07:33:26;101597.59;;;8.14;100.00
71666;BME280;59503;53.486;10.196;2024-02-21T07:35:51;101604.59;;;8.15;100.00
71666;BME280;59503;53.486;10.196;2024-02-21T07:38:17;101597.13;;;8.12;100.00
71666;BME280;59503;53.486;10.196;2024-02-21T07:40:45;101601.22;;;8.18;100.00
71666;BME280;59503;53.486;10.196;2024-02-21T07:43:11;101612.06;;;8.18;100.00
71666;BME280;59503;53.486;10.196;2024-02-21T07:45:36;101599.47;;;8.22;100.00
71666;BME280;59503;53.486;10.196;2024-02-21T07:48:03;101605.22;;;8.21;100.00
71666;BME280;59503;53.486;10.196;2024-02-21T07:50:29;101599.66;;;8.17;100.00
71666;BME280;59503;53.486;10.196;2024-02-21T07:52:55;101600.28;;;8.23;100.00
71666;BME280;59503;53.486;10.196;2024-02-21T07:55:20;101607.91;;;8.21;100.00
71666;BME280;59503;53.486;10.196;2024-02-21T07:57:45;101593.44;;;8.17;100.00
71666;BME280;59503;53.486;10.196;2024-02-21T08:00:11;101588.81;;;8.17;100.00
71666;BME280;59503;53.486;10.196;2024-02-21T08:02:48;101603.63;;;8.20;100.00
71666;BME280;59503;53.486;10.196;2024-02-21T08:05:13;101593.09;;;8.18;100.00
71666;BME280;59503;53.486;10.196;2024-02-21T08:07:39;101598.06;;;8.25;100.00
71666;BME280;59503;53.486;10.196;2024-02-21T08:10:05;101605.22;;;8.21;100.00
71666;BME280;59503;53.486;10.196;2024-02-21T08:12:33;101598.38;;;8.23;100.00
71666;BME280;59503;53.486;10.196;2024-02-21T08:14:59;101594.38;;;8.21;100.00
71666;BME280;59503;53.486;10.196;2024-02-21T08:17:24;101590.72;;;8.25;100.00
71666;BME280;59503;53.486;10.196;2024-02-21T08:19:49;101594.84;;;8.23;100.00
71666;BME280;59503;53.486;10.196;2024-02-21T08:22:15;101590.53;;;8.22;100.00
71666;BME280;59503;53.486;10.196;2024-02-21T08:24:41;101598.66;;;8.30;100.00
71666;BME280;59503;53.486;10.196;2024-02-21T08:27:07;101587.81;;;8.30;100.00
71666;BME280;59503;53.486;10.196;2024-02-21T08:29:32;101572.72;;;8.29;100.00
71666;BME280;59503;53.486;10.196;2024-02-21T08:31:58;101577.00;;;8.30;100.00
71666;BME280;59503;53.486;10.196;2024-02-21T08:34:23;101571.88;;;8.37;100.00
71666;BME280;59503;53.486;10.196;2024-02-21T08:36:49;101576.63;;;8.40;100.00
71666;BME280;59503;53.486;10.196;2024-02-21T08:39:15;101565.50;;;8.33;100.00
71666;BME280;59503;53.486;10.196;2024-02-21T08:41:42;101573.00;;;8.36;100.00
71666;BME280;59503;53.486;10.196;2024-02-21T08:44:08;101568.22;;;8.33;100.00
71666;BME280;59503;53.486;10.196;2024-02-21T08:46:34;101567.09;;;8.34;100.00
71666;BME280;59503;53.486;10.196;2024-02-21T08:48:59;101577.63;;;8.36;100.00
71666;BME280;59503;53.486;10.196;2024-02-21T08:51:25;101584.75;;;8.40;100.00
71666;BME280;59503;53.486;10.196;2024-02-21T08:53:51;101585.44;;;8.29;100.00
71666;BME280;59503;53.486;10.196;2024-02-21T08:56:18;101587.16;;;8.33;100.00
71666;BME280;59503;53.486;10.196;2024-02-21T08:58:44;101586.09;;;8.17;100.00
71666;BME280;59503;53.486;10.196;2024-02-21T09:01:09;101584.19;;;8.26;100.00
71666;BME280;59503;53.486;10.196;2024-02-21T09:03:38;101592.00;;;8.19;100.00
71666;BME280;59503;53.486;10.196;2024-02-21T09:06:05;101594.38;;;8.21;100.00
71666;BME280;59503;53.486;10.196;2024-02-21T09:08:31;101591.03;;;8.24;100.00
71666;BME280;59503;53.486;10.196;2024-02-21T09:10:57;101581.31;;;8.23;100.00
71666;BME280;59503;53.486;10.196;2024-02-21T09:13:22;101594.56;;;8.24;100.00
71666;BME280;59503;53.486;10.196;2024-02-21T09:15:49;101592.00;;;8.19;100.00
71666;BME280;59503;53.486;10.196;2024-02-21T09:18:15;101578.94;;;8.21;100.00
71666;BME280;59503;53.486;10.196;2024-02-21T09:20:41;101591.34;;;8.22;100.00
71666;BME280;59503;53.486;10.196;2024-02-21T09:23:07;101590.38;;;8.18;100.00
71666;BME280;59503;53.486;10.196;2024-02-21T09:25:32;101581.50;;;8.18;100.00
71666;BME280;59503;53.486;10.196;2024-02-21T09:27:57;101578.94;;;8.21;100.00
71666;BME280;59503;53.486;10.196;2024-02-21T09:30:24;101577.97;;;8.17;100.00
71666;BME280;59503;53.486;10.196;2024-02-21T09:32:49;101583.25;;;8.14;100.00
71666;BME280;59503;53.486;10.196;2024-02-21T09:35:15;101573.22;;;8.14;100.00
71666;BME280;59503;53.486;10.196;2024-02-21T09:37:40;101580.38;;;8.19;100.00
71666;BME280;59503;53.486;10.196;2024-02-21T09:40:06;101578.63;;;8.14;100.00
71666;BME280;59503;53.486;10.196;2024-02-21T09:42:37;101571.75;;;8.17;100.00
71666;BME280;59503;53.486;10.196;2024-02-21T09:45:21;101570.66;;;8.18;100.00
71666;BME280;59503;53.486;10.196;2024-02-21T09:47:50;101565.06;;;8.23;100.00
71666;BME280;59503;53.486;10.196;2024-02-21T09:50:19;101558.38;;;8.20;100.00
71666;BME280;59503;53.486;10.196;2024-02-21T09:52:47;101557.44;;;8.25;100.00
71666;BME280;59503;53.486;10.196;2024-02-21T09:55:14;101551.38;;;8.28;100.00
71666;BME280;59503;53.486;10.196;2024-02-21T09:57:40;101546.28;;;8.26;100.00
71666;BME280;59503;53.486;10.196;2024-02-21T10:00:07;101549.91;;;8.30;100.00
71666;BME280;59503;53.486;10.196;2024-02-21T10:02:33;101543.41;;;8.23;100.00
71666;BME280;59503;53.486;10.196;2024-02-21T10:04:59;101549.75;;;8.27;100.00
71666;BME280;59503;53.486;10.196;2024-02-21T10:07:24;101545.63;;;8.29;100.00
71666;BME280;59503;53.486;10.196;2024-02-21T10:10:01;101555.31;;;8.30;100.00
71666;BME280;59503;53.486;10.196;2024-02-21T10:12:27;101555.31;;;8.30;100.00
71666;BME280;59503;53.486;10.196;2024-02-21T10:15:03;101551.31;;;8.36;100.00
71666;BME280;59503;53.486;10.196;2024-02-21T10:17:29;101544.97;;;8.32;100.00
71666;BME280;59503;53.486;10.196;2024-02-21T10:19:55;101555.59;;;8.37;100.00
71666;BME280;59503;53.486;10.196;2024-02-21T10:22:20;101541.41;;;8.40;100.00
71666;BME280;59503;53.486;10.196;2024-02-21T10:24:46;101554.28;;;8.43;100.00
71666;BME280;59503;53.486;10.196;2024-02-21T10:27:12;101544.13;;;8.40;100.00
71666;BME280;59503;53.486;10.196;2024-02-21T10:29:39;101544.13;;;8.40;100.00
71666;BME280;59503;53.486;10.196;2024-02-21T10:34:31;101544.41;;;8.47;100.00
71666;BME280;59503;53.486;10.196;2024-02-21T10:37:14;101534.56;;;8.43;100.00
71666;BME280;59503;53.486;10.196;2024-02-21T10:39:41;101533.75;;;8.42;100.00
71666;BME280;59503;53.486;10.196;2024-02-21T10:42:07;101538.50;;;8.45;100.00
71666;BME280;59503;53.486;10.196;2024-02-21T10:44:39;101532.63;;;8.43;100.00
71666;BME280;59503;53.486;10.196;2024-02-21T10:47:10;101535.94;;;8.49;100.00
71666;BME280;59503;53.486;10.196;2024-02-21T10:49:39;101531.66;;;8.48;100.00
71666;BME280;59503;53.486;10.196;2024-02-21T10:52:28;101541.34;;;8.49;100.00
71666;BME280;59503;53.486;10.196;2024-02-21T10:55:04;101529.41;;;8.50;100.00
71666;BME280;59503;53.486;10.196;2024-02-21T10:57:31;101520.81;;;8.48;100.00
71666;BME280;59503;53.486;10.196;2024-02-21T10:59:59;101530.19;;;8.50;100.00
71666;BME280;59503;53.486;10.196;2024-02-21T11:02:25;101516.63;;;8.50;100.00
71666;BME280;59503;53.486;10.196;2024-02-21T11:04:53;101505.13;;;8.53;100.00
71666;BME280;59503;53.486;10.196;2024-02-21T11:07:20;101512.63;;;8.56;100.00
71666;BME280;59503;53.486;10.196;2024-02-21T11:09:53;101512.31;;;8.58;100.00
71666;BME280;59503;53.486;10.196;2024-02-21T11:12:23;101499.09;;;8.56;100.00
71666;BME280;59503;53.486;10.196;2024-02-21T11:14:50;101505.81;;;8.50;100.00
71666;BME280;59503;53.486;10.196;2024-02-21T11:17:20;101505.13;;;8.53;100.00
71666;BME280;59503;53.486;10.196;2024-02-21T11:19:51;101496.72;;;8.55;100.00
71666;BME280;59503;53.486;10.196;2024-02-21T11:22:18;101486.84;;;8.50;100.00
71666;BME280;59503;53.486;10.196;2024-02-21T11:24:45;101488.25;;;8.56;100.00
71666;BME280;59503;53.486;10.196;2024-02-21T11:27:15;101491.59;;;8.53;100.00
71666;BME280;59503;53.486;10.196;2024-02-21T11:29:55;101479.50;;;8.51;100.00
71666;BME280;59503;53.486;10.196;2024-02-21T11:32:21;101483.72;;;8.60;100.00
71666;BME280;59503;53.486;10.196;2024-02-21T11:37:19;101480.38;;;8.63;100.00
71666;BME280;59503;53.486;10.196;2024-02-21T11:39:44;101477.69;;;8.63;100.00
71666;BME280;59503;53.486;10.196;2024-02-21T11:42:10;101471.31;;;8.59;100.00
71666;BME280;59503;53.486;10.196;2024-02-21T11:44:38;101472.75;;;8.57;100.00
71666;BME280;59503;53.486;10.196;2024-02-21T11:47:06;101469.28;;;8.56;100.00
71666;BME280;59503;53.486;10.196;2024-02-21T11:49:36;101467.09;;;8.50;100.00
71666;BME280;59503;53.486;10.196;2024-02-21T11:52:03;101455.00;;;8.47;100.00
71666;BME280;59503;53.486;10.196;2024-02-21T11:54:33;101462.31;;;8.47;100.00
71666;BME280;59503;53.486;10.196;2024-02-21T11:56:59;101453.28;;;8.43;100.00
71666;BME280;59503;53.486;10.196;2024-02-21T11:59:25;101460.28;;;8.44;100.00
71666;BME280;59503;53.486;10.196;2024-02-21T12:01:52;101449.56;;;8.47;100.00
71666;BME280;59503;53.486;10.196;2024-02-21T12:04:21;101439.34;;;8.53;100.00
71666;BME280;59503;53.486;10.196;2024-02-21T12:06:49;101441.91;;;8.49;100.00
71666;BME280;59503;53.486;10.196;2024-02-21T12:09:17;101441.44;;;8.47;100.00
71666;BME280;59503;53.486;10.196;2024-02-21T12:11:44;101438.53;;;8.52;100.00
71666;BME280;59503;53.486;10.196;2024-02-21T12:14:10;101433.78;;;8.49;100.00
71666;BME280;59503;53.486;10.196;2024-02-21T12:16:36;101432.06;;;8.45;100.00
71666;BME280;59503;53.486;10.196;2024-02-21T12:19:02;101434.38;;;8.55;100.00
71666;BME280;59503;53.486;10.196;2024-02-21T12:21:33;101427.56;;;8.49;100.00
71666;BME280;59503;53.486;10.196;2024-02-21T12:24:14;101434.25;;;8.51;100.00
71666;BME280;59503;53.486;10.196;2024-02-21T12:26:40;101429.81;;;8.47;100.00
71666;BME280;59503;53.486;10.196;2024-02-21T12:29:06;101437.16;;;8.46;100.00
71666;BME280;59503;53.486;10.196;2024-02-21T12:31:35;101422.88;;;8.37;100.00
71666;BME280;59503;53.486;10.196;2024-02-21T12:34:00;101432.56;;;8.38;100.00
71666;BME280;59503;53.486;10.196;2024-02-21T12:36:26;101425.72;;;8.41;100.00
71666;BME280;59503;53.486;10.196;2024-02-21T12:38:51;101417.25;;;8.42;100.00
71666;BME280;59503;53.486;10.196;2024-02-21T12:41:17;101414.09;;;8.40;100.00
71666;BME280;59503;53.486;10.196;2024-02-21T12:43:42;101420.31;;;8.41;100.00